Tropical Cyclones
[Index]
Main Index Home Page Stock Weather Photos Extreme Storms Discussion Storm News and Storm Chasing Reports Tropical Cyclones / Hurricanes / Typhoons Weather Data and Links Wild Fires / Bushfires Weather Observation Techniques Weather Picture Catalogue Tornado Pictures and Reports Stock Video Footage and DVDs for sale
Season 2006-2007 Tropical Cyclone CLOVIS Track Map
Season 2006-2007 Summaries: [BoM-AU] [JTWC-AU] [JTWC-SIO] [JTWC-SPAC] [JTWC-SH]
<<- Previous TC | JTWC 2006-2007 Season | Next TC ->>

click for intensity scale information  Lat/long Grid: Show Hide

 Date Labels: Show Hide

Joint Typhoon Warning Centre Cyclone Data

Name: CLOVIS

29 Dec 2006 12:00 UTC to 04 Jan 2007 18:00 UTC

    date/time    lat    long     hPa   cat  kts
2006-12-29 12   12.2    57.8    1002         25          
2006-12-29 18   12.4    57.3    1002         25          
2006-12-30 00   12.5    56.8    1000         30          
2006-12-30 06   12.6    56.4    1000         30          
2006-12-30 12   12.8    56.0    1000         30          
2006-12-30 18   13.1    55.7    1000         30          
2006-12-31 00   13.5    55.3    1000         30          
2006-12-31 06   14.0    54.9     997         35          
2006-12-31 12   14.9    54.5     994    1    40          
2006-12-31 18   15.8    54.1     982    2    55          
2007-01-01 00   16.6    53.5     982    2    55          
2007-01-01 06   17.4    52.8     980    2    60          
2007-01-01 06   17.4    52.8     980    2    60          
2007-01-01 12   18.1    52.4     980    2    60          
2007-01-01 12   18.1    52.4     980    2    60          
2007-01-01 18   18.7    51.9     980    2    60          
2007-01-01 18   18.7    51.9     980    2    60          
2007-01-02 00   19.3    51.5     980    2    60          
2007-01-02 00   19.3    51.5     980    2    60          
2007-01-02 06   19.7    50.9     980    2    60          
2007-01-02 06   19.7    50.9     980    2    60          
2007-01-02 12   20.1    50.3     976    2    65          
2007-01-02 12   20.1    50.3     976    2    65          
2007-01-02 18   20.3    49.7     976    2    65          
2007-01-02 18   20.3    49.7     976    2    65          
2007-01-03 00   20.5    49.1     976    2    65          
2007-01-03 00   20.5    49.1     976    2    65          
2007-01-03 06   20.6    48.7     976    2    65          
2007-01-03 06   20.6    48.7     976    2    65          
2007-01-03 12   20.7    48.5     978    2    60          
2007-01-03 12   20.7    48.5     978    2    60          
2007-01-03 18   20.8    48.4     991    1    45          
2007-01-04 00   20.8    48.3     994    1    40          
2007-01-04 06   20.8    48.2     997         35          
2007-01-04 12   20.8    48.1    1000         30          
2007-01-04 18   20.8    48.0    1002         25          
Winds are 1-min average.

Tropical cyclone tracks developed by Michael Bath using data from the Joint Typhoon Warning Centre Best Tracks and Google Maps.


[Australian Severe Weather index] [Copyright Notice] [Email Contacts] [Search This Site] [Privacy Policy]
Document: tropical_cyclone_clovis.htm Updated: 28 June 2017